ADDS METAR Data INFO
IDs: Format: Raw Decoded Include TAF

Data at: 1950 UTC 14 Aug 2018

KAFK 141935Z AUTO 10009KT 7SM -RA OVC005 22/22 A2989 RMK AO2 P0008 T02180218
KAFK 141915Z AUTO 07010G14KT 3SM -RA BKN005 OVC011 22/22 A2989 RMK AO2 P0005 T02180218
KAFK 141855Z AUTO 08012G15KT 5SM DZ BKN005 OVC011 22/22 A2990 RMK AO2 P0004 T02180218
KAFK 141835Z AUTO 06006KT 4SM -RA BKN007 OVC012 22/22 A2990 RMK AO2 P0003 T02160216
KAFK 141815Z AUTO 06007KT 5SM -RA BKN007 BKN014 OVC046 22/22 A2991 RMK AO2 LTG DSNT NW P0001 T02150215
KAFK 141755Z AUTO 08007KT 10SM -RA SCT009 BKN045 OVC070 22/22 A2992 RMK AO2 60058 T02180218 10220 20210
KAFK 141735Z AUTO 09010G15KT 10SM BKN045 OVC070 22/22 A2993 RMK AO2 T02160216
KAFK 141715Z AUTO 08009G15KT 5SM -RA SCT006 SCT019 OVC047 21/21 A2993 RMK AO2 T02120212
KAFK 141655Z AUTO 09009G15KT 4SM -RA SCT004 BKN008 OVC045 21/21 A2994 RMK AO2 P0020 T02120212
KAFK 141635Z AUTO 09011G14KT 4SM -RA SCT006 BKN046 OVC060 21/21 A2994 RMK AO2 P0017 T02140214
KAFK 141615Z AUTO 10010G14KT 3SM +RA SCT008 BKN046 OVC050 21/21 A2994 RMK AO2 P0008 T02110211
KAFK 141555Z AUTO 11010KT 3SM RA SCT027 BKN041 OVC060 21/21 A2995 RMK AO2 P0027 T02110211
KAFK 141535Z AUTO 10013G16KT 5SM RA SCT041 BKN075 OVC085 22/22 A2994 RMK AO2 P0006 T02180218
KAFK 141515Z AUTO 07009KT 7SM RA BKN065 BKN070 OVC085 22/22 A2994 RMK AO2 P0002 T02170217
KAFK 141455Z AUTO 05007KT 4SM -RA BKN065 BKN075 OVC095 22/22 A2993 RMK AO2 P0002 60010 T02180218
KAFK 141435Z AUTO 05007KT 4SM -RA SCT050 SCT075 OVC095 22/22 A2993 RMK AO2 P0001 T02180218
KAFK 141415Z AUTO 03007KT 4SM RA SCT003 BKN023 OVC095 22/22 A2992 RMK AO2 T02200220
KAFK 141355Z AUTO 02005KT 3SM -RA BKN001 BKN013 OVC031 22/22 A2993 RMK AO2 P0007 T02200220
KAFK 141335Z AUTO 36004KT 2SM -RA BKN001 BKN014 OVC055 22/22 A2993 RMK AO2 P0006 T02160216
KAFK 141315Z AUTO 00000KT 2 1/2SM RA SCT050 BKN070 OVC120 22/22 A2994 RMK AO2 P0003 T02160216
KAFK 141255Z AUTO 09003KT 4SM -RA SCT055 SCT070 BKN090 22/22 A2993 RMK AO2 P0001 T02160216
KAFK 141235Z AUTO 00000KT 5SM RA SCT055 SCT070 BKN120 22/22 A2993 RMK AO2 P0001 T02150215
KAFK 141215Z AUTO 00000KT 7SM -DZ SCT075 SCT095 BKN120 22/22 A2993 RMK AO2 T02160216
KAFK 141155Z AUTO 33003KT 7SM -DZ SCT060 SCT080 OVC095 22/22 A2993 RMK AO2 P0003 60021 70021 T02160216 10225 20211
KAFK 141135Z AUTO 00000KT 7SM RA SCT080 OVC095 22/22 A2993 RMK AO2 P0003 T02160216
KAFK 141115Z AUTO 00000KT 7SM -RA SCT022 BKN055 OVC095 22/22 A2993 RMK AO2 P0002 T02180218
KAFK 141055Z AUTO 00000KT 1 3/4SM -RA SCT022 BKN038 OVC049 22/22 A2993 RMK AO2 P0018 T02170217
KAFK 141035Z AUTO 19003KT 10SM BKN040 OVC050 22/22 A2994 RMK AO2 T02150215
KAFK 141015Z AUTO 00000KT 10SM OVC040 22/22 A2994 RMK AO2 T02170217
KAFK 140955Z AUTO 00000KT 10SM BKN040 OVC120 22/22 A2994 RMK AO2 T02180218
KAFK 140935Z AUTO 00000KT 10SM BKN042 OVC120 22/22 A2994 RMK AO2 LTG DSNT W AND NW T02180218
KAFK 140915Z AUTO 00000KT 10SM SCT046 SCT120 22/22 A2994 RMK AO2 T02150215
KAFK 140855Z AUTO 00000KT 10SM CLR 21/21 A2994 RMK AO2 T02140214
KAFK 140835Z AUTO 00000KT 10SM CLR 21/21 A2995 RMK AO2 T02140214
KAFK 140815Z AUTO 00000KT 10SM CLR 21/21 A2995 RMK AO2 T02110211
KAFK 140755Z AUTO 00000KT 10SM SCT055 22/22 A2996 RMK AO2 T02180218
KAFK 140735Z AUTO 00000KT 10SM BKN055 22/22 A2996 RMK AO2 T02150215
KAFK 140715Z AUTO 00000KT 10SM CLR 22/22 A2997 RMK AO2 T02160216
KAFK 140655Z AUTO 00000KT 10SM CLR 22/22 A2997 RMK AO2 LTG DSNT SW T02180218
KAFK 140635Z AUTO 00000KT 10SM CLR 22/22 A2997 RMK AO2 T02220222
KAFK 140615Z AUTO 00000KT 10SM CLR 22/22 A2997 RMK AO2 T02230223
KAFK 140555Z AUTO 00000KT 10SM CLR 22/22 A2997 RMK AO2 T02230223 10282 20223 403240182
KAFK 140535Z AUTO 00000KT 10SM CLR 23/23 A2996 RMK AO2 T02250225
KAFK 140515Z AUTO 28003KT 10SM CLR 23/23 A2996 RMK AO2 T02270227
KAFK 140455Z AUTO 27003KT 10SM CLR 23/23 A2996 RMK AO2 T02300230
KAFK 140435Z AUTO 28006KT 10SM CLR 23/23 A2996 RMK AO2 T02300230
KAFK 140415Z AUTO 26005KT 10SM CLR 23/23 A2996 RMK AO2 T02300230
KAFK 140355Z AUTO 23005KT 10SM CLR 23/23 A2997 RMK AO2 T02310226
KAFK 140335Z AUTO 23004KT 10SM CLR 24/22 A2997 RMK AO2 T02360224
KAFK 140315Z AUTO 22006KT 10SM CLR 24/22 A2997 RMK AO2 T02390221
KAFK 140255Z AUTO 22004KT 10SM CLR 24/22 A2997 RMK AO2 T02430220
KAFK 140235Z AUTO 21005KT 10SM CLR 25/21 A2997 RMK AO2 T02480210
KAFK 140215Z AUTO 20007KT 10SM CLR 25/21 A2996 RMK AO2 T02540211
KAFK 140155Z AUTO 21005KT 10SM CLR 26/21 A2996 RMK AO2 T02550212
KAFK 140135Z AUTO 19006KT 10SM CLR 26/21 A2996 RMK AO2 T02620207
KAFK 140115Z AUTO 17009KT 10SM CLR 27/21 A2996 RMK AO2 T02660212
KAFK 140055Z AUTO 00000KT 10SM CLR 28/21 A2995 RMK AO2 T02750207
KAFK 140035Z AUTO 00000KT 7SM CLR 28/21 A2996 RMK AO2 T02760211
KAFK 140015Z AUTO 00000KT 10SM CLR 28/21 A2996 RMK AO2 T02800211
KAFK 132355Z AUTO 00000KT 10SM CLR 28/21 A2996 RMK AO2 T02830211 10324 20283
KAFK 132335Z AUTO 16004KT 10SM CLR 29/21 A2996 RMK AO2 T02880210
KAFK 132315Z AUTO 16006KT 10SM CLR 29/21 A2996 RMK AO2 T02920206
KAFK 132255Z AUTO 16005KT 10SM CLR 30/20 A2996 RMK AO2 LTG DSNT SW T02950203
KAFK 132235Z AUTO 16006KT 10SM CLR 30/20 A2996 RMK AO2 T02980198
KAFK 132215Z AUTO 17008KT 10SM CLR 30/19 A2996 RMK AO2 T03010192
KAFK 132155Z AUTO 16006KT 10SM CLR 31/20 A2996 RMK AO2 T03080203
KAFK 132135Z AUTO 15007KT 10SM CLR 31/20 A2996 RMK AO2 T03070198
KAFK 132115Z AUTO 14008KT 10SM CLR 31/20 A2997 RMK AO2 LTG DSNT W T03080202
KAFK 132055Z AUTO 12008KT 10SM CLR 32/20 A2997 RMK AO2 T03160199
KAFK 132035Z AUTO 13008KT 10SM CLR 32/21 A2998 RMK AO2 LTG DSNT SW T03210207
KAFK 132015Z AUTO 11010KT 10SM CLR 32/21 A2999 RMK AO2 T03240207
KAFK 131955Z AUTO 12007KT 10SM CLR 32/20 A2999 RMK AO2 T03210203
KAFK 131935Z AUTO 13006KT 10SM SCT040 32/21 A3000 RMK AO2 T03200210
KAFK 131915Z AUTO 12009KT 10SM SCT036 32/21 A3000 RMK AO2 T03200212
KAFK 131855Z AUTO 15008KT 10SM CLR 31/21 A3001 RMK AO2 T03140208
KAFK 131835Z AUTO 14010KT 10SM SCT039 30/21 A3001 RMK AO2 T03040207
KAFK 131815Z AUTO 15010KT 10SM SCT039 31/21 A3002 RMK AO2 T03130207
KAFK 131755Z AUTO 15006G09KT 10SM CLR 31/20 A3002 RMK AO2 T03090204 10309 20182
KAFK 131735Z AUTO 14008KT 10SM CLR 30/22 A3003 RMK AO2 T03010224
KAFK 131715Z AUTO 17007KT 10SM CLR 30/22 A3003 RMK AO2 T03010221
KAFK 131655Z AUTO 13006KT 10SM CLR 30/22 A3004 RMK AO2 T02950222
KAFK 131635Z AUTO 13007KT 10SM CLR 29/22 A3004 RMK AO2 T02930224
KAFK 131615Z AUTO 13006KT 10SM CLR 29/23 A3004 RMK AO2 T02870229
KAFK 131555Z AUTO 13005KT 10SM CLR 28/22 A3004 RMK AO2 T02790222
KAFK 131535Z AUTO 13004KT 10SM CLR 27/22 A3004 RMK AO2 T02680222
KAFK 131515Z AUTO 15005KT 10SM CLR 26/22 A3005 RMK AO2 T02630221
KAFK 131455Z AUTO 14004KT 10SM CLR 25/22 A3005 RMK AO2 T02530216
KAFK 131435Z AUTO 14004KT 10SM CLR 24/21 A3005 RMK AO2 T02440214
KAFK 131415Z AUTO 16006KT 10SM CLR 24/21 A3006 RMK AO2 T02390210
KAFK 131355Z AUTO 16005KT 10SM CLR 23/21 A3006 RMK AO2 T02310206
KAFK 131335Z AUTO 15005KT 10SM CLR 23/20 A3006 RMK AO2 T02250201
KAFK 131315Z AUTO 15003KT 10SM CLR 22/20 A3006 RMK AO2 T02200198
KAFK 131255Z AUTO 00000KT 10SM CLR 20/19 A3006 RMK AO2 LTG DSNT SW T02020194
KAFK 131235Z AUTO 14003KT 10SM CLR 20/19 A3006 RMK AO2 T02020190
KAFK 131215Z AUTO 00000KT 10SM CLR 20/19 A3006 RMK AO2 T01960186
KAFK 131155Z AUTO 00000KT 10SM CLR 18/18 A3005 RMK AO2 T01830181 10228 20183
KAFK 131135Z AUTO 15004KT 10SM CLR 20/18 A3005 RMK AO2 T01950182
KAFK 131115Z AUTO 18004KT 10SM CLR 19/18 A3005 RMK AO2 T01920184
KAFK 131055Z AUTO 17003KT 10SM CLR 20/18 A3005 RMK AO2 T01970180
KAFK 131035Z AUTO 00000KT 10SM CLR 20/18 A3006 RMK AO2 T01980180
KAFK 131015Z AUTO 17003KT 10SM CLR 20/18 A3006 RMK AO2 T01990180
KAFK 130955Z AUTO 15003KT 10SM CLR 21/17 A3006 RMK AO2 T02070166
KAFK 130935Z AUTO 14003KT 10SM CLR 21/17 A3006 RMK AO2 T02130165
KAFK 130915Z AUTO 13003KT 10SM CLR 22/17 A3006 RMK AO2 T02180165
KAFK 130855Z AUTO 13003KT 10SM CLR 21/17 A3006 RMK AO2 T02110168
KAFK 130835Z AUTO 15004KT 10SM CLR 21/17 A3006 RMK AO2 T02110167
KAFK 130815Z AUTO 16005KT 10SM CLR 21/17 A3006 RMK AO2 T02080166
KAFK 130755Z AUTO 16004KT 10SM CLR 21/17 A3006 RMK AO2 T02110165